Mestre Silva — CUFZ5 — position and weather

sailwx.info

Track history (hours):
 
Tides and Currents Weather Stations Pressure Air Temp Water Temp Dewpoint Dewpoint Depression Visibility Wind Speed Wind Dir Waves Ship Positions

Mestre Silva

Last reported at 2018-Jul-19 15:21 UTC. Time now 2018-Jul-20 00:52 UTC.
Position N 41°11' W 008°42'.

Length 12 m.

Type: Fishing. MMSI: 263420860.

Date/timePositionNaut miles runAvg speedWind from/ knotsBaromVisibWave heightAir tempDewpointWater temp
2018-Jul-19 15:21N 41°11' W 008°42'0 0.0
2018-Jul-19 15:00N 41°11' W 008°42'0 0.0
2018-Jul-19 14:00N 41°11' W 008°42'4 0.2
2018-Jul-18 19:25N 41°07' W 008°45'4 1.1
2018-Jul-18 15:30N 41°11' W 008°42'0 0.0
2018-Jul-18 15:00N 41°11' W 008°42'0 0.1
2018-Jul-18 14:30N 41°11' W 008°42'5 0.3
2018-Jul-17 20:01N 41°09' W 008°47'1 7.1
2018-Jul-17 19:51N 41°09' W 008°46'2 7.4
2018-Jul-17 19:30N 41°10' W 008°43'1 1.5
2018-Jul-17 18:53N 41°11' W 008°42'0 0.0
2018-Jul-17 18:30N 41°11' W 008°42'0 0.0
2018-Jul-17 18:01N 41°11' W 008°42'0 0.0
2018-Jul-17 17:31N 41°11' W 008°42'0 0.0
2018-Jul-17 17:01N 41°11' W 008°42'0 0.0
2018-Jul-17 13:00N 41°11' W 008°42'0 0.0
2018-Jul-17 12:30N 41°11' W 008°42'0 0.2
2018-Jul-17 12:00N 41°11' W 008°42'1 1.6
2018-Jul-17 11:30N 41°10' W 008°42'3 5.7
2018-Jul-17 11:00N 41°08' W 008°44'2 0.1
2018-Jul-16 19:41N 41°06' W 008°45'2 7.2
2018-Jul-16 19:21N 41°08' W 008°44'3 7.3
2018-Jul-16 19:00N 41°10' W 008°42'1 1.3
2018-Jul-16 18:21N 41°11' W 008°42'0 0.0
2018-Jul-16 18:00N 41°11' W 008°42'0 0.0
2018-Jul-16 17:30N 41°11' W 008°42'0 0.0
2018-Jul-16 17:00N 41°11' W 008°42'0 0.0
2018-Jul-16 16:30N 41°11' W 008°42'0 0.0
2018-Jul-16 16:00N 41°11' W 008°42'0 0.0
2018-Jul-16 15:30N 41°11' W 008°42'0 0.0
2018-Jul-16 15:00N 41°11' W 008°42'0 0.1
2018-Jul-16 14:30N 41°11' W 008°42'0 0.0
2018-Jul-16 14:00N 41°11' W 008°42'1 2.2
2018-Jul-16 13:30N 41°10' W 008°43'3 6.7
2018-Jul-16 13:00N 41°08' W 008°46'1 0.1
2018-Jul-15 20:45N 41°07' W 008°48'2 7.0
2018-Jul-15 20:27N 41°09' W 008°46'3 6.4
2018-Jul-15 20:00N 41°10' W 008°43'1 0.0
2018-Jul-14 11:05N 41°11' W 008°42'0 0.0
2018-Jul-14 11:00N 41°11' W 008°42'0 0.0
2018-Jul-14 10:29N 41°11' W 008°42'0 0.0
2018-Jul-14 10:00N 41°11' W 008°42'0 0.0
2018-Jul-14 09:30N 41°11' W 008°42'0 0.0
2018-Jul-14 09:00N 41°11' W 008°42'0 0.0
2018-Jul-13 13:44N 41°11' W 008°42'0 0.2
2018-Jul-13 13:30N 41°11' W 008°42'0 0.4
2018-Jul-13 13:00N 41°11' W 008°42'1 2.4
2018-Jul-13 12:30N 41°10' W 008°43'1 0.1
2018-Jul-12 15:54N 41°11' W 008°42'0 0.0
2018-Jul-11 17:24N 41°11' W 008°42'0 0.1
2018-Jul-11 17:01N 41°11' W 008°42'0 0.6
2018-Jul-11 16:30N 41°11' W 008°42'3 6.8
2018-Jul-11 16:00N 41°09' W 008°46'3 0.2
2018-Jul-10 19:47N 41°06' W 008°46'2 7.1
2018-Jul-10 19:30N 41°08' W 008°45'3 6.6
2018-Jul-10 19:00N 41°10' W 008°42'1 1.3
2018-Jul-10 18:30N 41°11' W 008°42'0 0.0
2018-Jul-10 18:00N 41°11' W 008°42'0 0.0
2018-Jul-10 17:30N 41°11' W 008°42'0 0.0
2018-Jul-10 14:42N 41°11' W 008°42'0 0.0
2018-Jul-10 14:30N 41°11' W 008°42'0 0.1
2018-Jul-10 14:00N 41°11' W 008°42'2 4.4
2018-Jul-10 13:30N 41°09' W 008°44'4 0.2
2018-Jul-09 19:51N 41°06' W 008°46'3 7.4
2018-Jul-09 19:30N 41°08' W 008°44'3 6.7
2018-Jul-09 19:01N 41°11' W 008°42'0 0.8
2018-Jul-09 18:31N 41°11' W 008°42'0 0.0
2018-Jul-09 17:19N 41°11' W 008°42'0 0.0
2018-Jul-09 17:00N 41°11' W 008°42'0 0.0
2018-Jul-09 16:30N 41°11' W 008°42'0 0.0
2018-Jul-09 16:00N 41°11' W 008°42'  
Track history (hours):
 
Tides and Currents Weather Stations Pressure Air Temp Water Temp Dewpoint Dewpoint Depression Visibility Wind Speed Wind Dir Waves Ship Positions

Mestre Silva

Last reported at 2018-Jul-19 15:21 UTC. Time now 2018-Jul-20 00:52 UTC.
Position N 41°11' W 008°42'.

Length 12 m.

Type: Fishing. MMSI: 263420860.

Date/timePositionNaut miles runAvg speedWind from/ knotsBaromVisibWave heightAir tempDewpointWater temp
2018-Jul-19 15:21N 41°11' W 008°42'0 0.0
2018-Jul-19 15:00N 41°11' W 008°42'0 0.0
2018-Jul-19 14:00N 41°11' W 008°42'4 0.2
2018-Jul-18 19:25N 41°07' W 008°45'4 1.1
2018-Jul-18 15:30N 41°11' W 008°42'0 0.0
2018-Jul-18 15:00N 41°11' W 008°42'0 0.1
2018-Jul-18 14:30N 41°11' W 008°42'5 0.3
2018-Jul-17 20:01N 41°09' W 008°47'1 7.1
2018-Jul-17 19:51N 41°09' W 008°46'2 7.4
2018-Jul-17 19:30N 41°10' W 008°43'1 1.5
2018-Jul-17 18:53N 41°11' W 008°42'0 0.0
2018-Jul-17 18:30N 41°11' W 008°42'0 0.0
2018-Jul-17 18:01N 41°11' W 008°42'0 0.0
2018-Jul-17 17:31N 41°11' W 008°42'0 0.0
2018-Jul-17 17:01N 41°11' W 008°42'0 0.0
2018-Jul-17 13:00N 41°11' W 008°42'0 0.0
2018-Jul-17 12:30N 41°11' W 008°42'0 0.2
2018-Jul-17 12:00N 41°11' W 008°42'1 1.6
2018-Jul-17 11:30N 41°10' W 008°42'3 5.7
2018-Jul-17 11:00N 41°08' W 008°44'2 0.1
2018-Jul-16 19:41N 41°06' W 008°45'2 7.2
2018-Jul-16 19:21N 41°08' W 008°44'3 7.3
2018-Jul-16 19:00N 41°10' W 008°42'1 1.3
2018-Jul-16 18:21N 41°11' W 008°42'0 0.0
2018-Jul-16 18:00N 41°11' W 008°42'0 0.0
2018-Jul-16 17:30N 41°11' W 008°42'0 0.0
2018-Jul-16 17:00N 41°11' W 008°42'0 0.0
2018-Jul-16 16:30N 41°11' W 008°42'0 0.0
2018-Jul-16 16:00N 41°11' W 008°42'0 0.0
2018-Jul-16 15:30N 41°11' W 008°42'0 0.0
2018-Jul-16 15:00N 41°11' W 008°42'0 0.1
2018-Jul-16 14:30N 41°11' W 008°42'0 0.0
2018-Jul-16 14:00N 41°11' W 008°42'1 2.2
2018-Jul-16 13:30N 41°10' W 008°43'3 6.7
2018-Jul-16 13:00N 41°08' W 008°46'1 0.1
2018-Jul-15 20:45N 41°07' W 008°48'2 7.0
2018-Jul-15 20:27N 41°09' W 008°46'3 6.4
2018-Jul-15 20:00N 41°10' W 008°43'1 0.0
2018-Jul-14 11:05N 41°11' W 008°42'0 0.0
2018-Jul-14 11:00N 41°11' W 008°42'0 0.0
2018-Jul-14 10:29N 41°11' W 008°42'0 0.0
2018-Jul-14 10:00N 41°11' W 008°42'0 0.0
2018-Jul-14 09:30N 41°11' W 008°42'0 0.0
2018-Jul-14 09:00N 41°11' W 008°42'0 0.0
2018-Jul-13 13:44N 41°11' W 008°42'0 0.2
2018-Jul-13 13:30N 41°11' W 008°42'0 0.4
2018-Jul-13 13:00N 41°11' W 008°42'1 2.4
2018-Jul-13 12:30N 41°10' W 008°43'1 0.1
2018-Jul-12 15:54N 41°11' W 008°42'0 0.0
2018-Jul-11 17:24N 41°11' W 008°42'0 0.1
2018-Jul-11 17:01N 41°11' W 008°42'0 0.6
2018-Jul-11 16:30N 41°11' W 008°42'3 6.8
2018-Jul-11 16:00N 41°09' W 008°46'3 0.2
2018-Jul-10 19:47N 41°06' W 008°46'2 7.1
2018-Jul-10 19:30N 41°08' W 008°45'3 6.6
2018-Jul-10 19:00N 41°10' W 008°42'1 1.3
2018-Jul-10 18:30N 41°11' W 008°42'0 0.0
2018-Jul-10 18:00N 41°11' W 008°42'0 0.0
2018-Jul-10 17:30N 41°11' W 008°42'0 0.0
2018-Jul-10 14:42N 41°11' W 008°42'0 0.0
2018-Jul-10 14:30N 41°11' W 008°42'0 0.1
2018-Jul-10 14:00N 41°11' W 008°42'2 4.4
2018-Jul-10 13:30N 41°09' W 008°44'4 0.2
2018-Jul-09 19:51N 41°06' W 008°46'3 7.4
2018-Jul-09 19:30N 41°08' W 008°44'3 6.7
2018-Jul-09 19:01N 41°11' W 008°42'0 0.8
2018-Jul-09 18:31N 41°11' W 008°42'0 0.0
2018-Jul-09 17:19N 41°11' W 008°42'0 0.0
2018-Jul-09 17:00N 41°11' W 008°42'0 0.0
2018-Jul-09 16:30N 41°11' W 008°42'0 0.0
2018-Jul-09 16:00N 41°11' W 008°42'  

Dump ship's entire track history